createdAt,value
2023-12-07T00:02:28.421Z,99771.78
2023-12-07T00:07:31.387Z,99771.31
2023-12-07T00:12:34.263Z,99776.75
2023-12-07T00:17:37.226Z,99773.25
2023-12-07T00:22:40.242Z,99776.28
2023-12-07T00:27:43.116Z,99784.94
2023-12-07T00:32:45.873Z,99789.47
2023-12-07T00:37:48.712Z,99781.66
2023-12-07T00:42:51.727Z,99782.34
2023-12-07T00:47:55.124Z,99791.56
2023-12-07T00:52:58.085Z,99787.31
2023-12-07T00:58:02.974Z,99786.25
2023-12-07T01:03:05.703Z,99795.69
2023-12-07T01:08:08.533Z,99796.00
2023-12-07T01:13:11.456Z,99790.75
2023-12-07T01:18:14.338Z,99795.91
2023-12-07T01:23:17.252Z,99797.53
2023-12-07T01:28:20.139Z,99806.19
2023-12-07T01:33:23.372Z,99801.28
2023-12-07T01:38:26.193Z,99809.53
2023-12-07T01:43:29.301Z,99810.94
2023-12-07T01:48:32.433Z,99820.66
2023-12-07T01:53:35.877Z,99821.41
2023-12-07T01:58:39.935Z,99822.16
2023-12-07T02:03:43.342Z,99814.97
2023-12-07T02:08:46.493Z,99819.44
2023-12-07T02:13:50.285Z,99822.84
2023-12-07T02:19:10.626Z,99822.53
2023-12-07T02:24:18.363Z,99826.69
2023-12-07T02:29:21.941Z,99828.47
2023-12-07T02:34:24.821Z,99831.94
2023-12-07T02:39:28.450Z,99831.25
2023-12-07T02:44:31.802Z,99827.16
2023-12-07T02:49:35.097Z,99832.44
2023-12-07T02:54:38.086Z,99836.13
2023-12-07T02:59:40.804Z,99847.16
2023-12-07T03:04:43.684Z,99850.47
2023-12-07T03:09:46.788Z,99852.13
2023-12-07T03:14:50.360Z,99855.06
2023-12-07T03:19:53.573Z,99863.13
2023-12-07T03:24:56.448Z,99856.72
2023-12-07T03:29:59.418Z,99866.25
2023-12-07T03:35:02.167Z,99869.09
2023-12-07T03:40:07.268Z,99878.56
2023-12-07T03:45:10.450Z,99883.44
2023-12-07T03:50:13.307Z,99878.91
2023-12-07T03:55:16.322Z,99883.34
2023-12-07T04:00:19.283Z,99893.34
2023-12-07T04:05:22.046Z,99897.00
2023-12-07T04:10:25.363Z,99895.19
2023-12-07T04:15:28.478Z,99903.06
2023-12-07T04:20:31.399Z,99902.75
2023-12-07T04:25:34.430Z,99909.25
2023-12-07T04:30:37.206Z,99908.38
2023-12-07T04:35:40.224Z,99911.06
2023-12-07T04:40:43.818Z,99907.34
2023-12-07T04:45:46.908Z,99910.69
2023-12-07T04:50:49.742Z,99912.66
2023-12-07T04:55:52.707Z,99921.00
2023-12-07T05:00:56.958Z,99924.63
2023-12-07T05:06:00.025Z,99920.94
2023-12-07T05:11:02.975Z,99925.28
2023-12-07T05:16:08.267Z,99936.00
2023-12-07T05:21:11.477Z,99940.34
2023-12-07T05:26:14.535Z,99945.50
2023-12-07T05:31:20.569Z,99944.41
2023-12-07T05:36:23.537Z,99938.97
2023-12-07T05:41:27.173Z,99947.97
2023-12-07T05:46:30.170Z,99952.59
2023-12-07T05:51:33.053Z,99957.00
2023-12-07T05:56:36.059Z,99957.91
2023-12-07T06:01:39.019Z,99961.53
2023-12-07T06:06:42.092Z,99973.28
2023-12-07T06:11:44.948Z,99983.72
2023-12-07T06:16:47.771Z,99993.47
2023-12-07T06:21:50.567Z,99993.28
2023-12-07T06:26:53.868Z,99996.09
2023-12-07T06:31:57.296Z,100000.81
2023-12-07T06:37:00.128Z,99995.81
2023-12-07T06:42:03.478Z,100003.84
2023-12-07T06:47:06.472Z,100011.22
2023-12-07T06:52:09.411Z,100025.75
2023-12-07T06:57:12.595Z,100022.09
2023-12-07T07:02:15.764Z,100027.03
2023-12-07T07:07:19.185Z,100025.75
2023-12-07T07:12:23.362Z,100035.16
2023-12-07T07:17:26.540Z,100036.16
2023-12-07T07:22:29.698Z,100036.41
2023-12-07T07:27:33.135Z,100034.97
2023-12-07T07:32:37.029Z,100036.59
2023-12-07T07:37:40.707Z,100042.88
2023-12-07T07:42:43.613Z,100039.19
2023-12-07T07:47:46.720Z,100042.47
2023-12-07T07:52:49.705Z,100054.28
2023-12-07T07:57:52.555Z,100051.84
2023-12-07T08:02:55.356Z,100059.31
2023-12-07T08:07:58.230Z,100059.25
2023-12-07T08:13:01.240Z,100069.25
2023-12-07T08:18:04.352Z,100065.59
2023-12-07T08:23:07.294Z,100070.63
2023-12-07T08:28:11.066Z,100072.88
2023-12-07T08:33:15.644Z,100078.50
2023-12-07T08:38:18.714Z,100077.91
2023-12-07T08:43:25.353Z,100085.53
2023-12-07T08:48:28.930Z,100081.59
2023-12-07T08:53:31.882Z,100089.19
2023-12-07T08:58:34.835Z,100081.47
2023-12-07T09:03:39.529Z,100076.16
2023-12-07T09:08:42.605Z,100068.44
2023-12-07T09:13:46.872Z,100070.75
2023-12-07T09:19:06.994Z,100080.22
2023-12-07T09:24:14.662Z,100080.97
2023-12-07T09:29:17.803Z,100077.63
2023-12-07T09:34:20.942Z,100072.44
2023-12-07T09:39:25.420Z,100079.38
2023-12-07T09:44:29.056Z,100070.28
2023-12-07T09:49:32.409Z,100067.88
2023-12-07T09:54:36.682Z,100067.38
2023-12-07T09:59:42.383Z,100075.34
2023-12-07T10:04:46.177Z,100078.34
2023-12-07T10:09:49.098Z,100071.28
2023-12-07T10:14:52.191Z,100065.63
2023-12-07T10:20:10.712Z,100074.00
2023-12-07T10:25:14.518Z,100071.44
2023-12-07T10:30:17.765Z,100067.63
2023-12-07T10:35:24.419Z,100067.91
2023-12-07T10:40:27.508Z,100065.13
2023-12-07T10:45:32.390Z,100075.03
2023-12-07T10:50:45.991Z,100066.91
2023-12-07T10:55:57.489Z,100076.13
2023-12-07T11:01:02.406Z,100071.44
2023-12-07T11:06:07.467Z,100067.19
2023-12-07T11:11:27.529Z,100064.84
2023-12-07T11:16:43.427Z,100063.50
2023-12-07T11:21:46.320Z,100061.63
2023-12-07T11:26:49.597Z,100059.41
2023-12-07T11:31:58.236Z,100060.47
2023-12-07T11:37:01.779Z,100063.13
2023-12-07T11:42:26.457Z,100065.44
2023-12-07T11:47:30.278Z,100055.31
2023-12-07T11:52:33.755Z,100061.00
2023-12-07T11:57:37.268Z,100060.88
2023-12-07T12:02:40.730Z,100057.91
2023-12-07T12:07:44.434Z,100051.78
2023-12-07T12:12:47.672Z,100055.66
2023-12-07T12:17:53.420Z,100056.47
2023-12-07T12:22:56.967Z,100069.00
2023-12-07T12:28:06.339Z,100064.72
2023-12-07T12:33:09.664Z,100060.94
2023-12-07T12:38:20.959Z,100061.50
2023-12-07T12:44:51.965Z,100069.06
2023-12-07T12:49:55.421Z,100070.97
2023-12-07T12:54:59.480Z,100070.91
2023-12-07T13:00:14.129Z,100071.63
2023-12-07T13:05:19.099Z,100064.66
2023-12-07T13:10:22.587Z,100066.31
2023-12-07T13:15:27.196Z,100066.69
2023-12-07T13:25:33.864Z,100073.63
2023-12-07T13:30:38.192Z,100071.50
2023-12-07T13:35:48.099Z,100072.13
2023-12-07T13:41:04.728Z,100073.91
2023-12-07T13:46:25.039Z,100087.50
2023-12-07T13:51:41.322Z,100083.38
2023-12-07T13:56:56.948Z,100087.03
2023-12-07T14:02:05.426Z,100087.84
2023-12-07T14:07:15.313Z,100085.97
2023-12-07T14:12:30.933Z,100088.78
2023-12-07T14:17:47.260Z,100098.13
2023-12-07T14:23:22.638Z,100098.41
2023-12-07T14:28:37.725Z,100102.63
2023-12-07T14:33:57.880Z,100100.09
2023-12-07T14:39:15.764Z,100105.78
2023-12-07T14:44:28.940Z,100112.91
2023-12-07T14:49:34.738Z,100121.50
2023-12-07T14:54:41.949Z,100117.38
2023-12-07T14:59:46.183Z,100117.69
2023-12-07T15:04:50.753Z,100115.56
2023-12-07T15:09:53.902Z,100121.72
2023-12-07T15:14:57.174Z,100129.09
2023-12-07T15:20:00.771Z,100132.56
2023-12-07T15:25:06.559Z,100127.03
2023-12-07T15:30:12.154Z,100132.59
2023-12-07T15:35:15.600Z,100125.16
2023-12-07T15:40:18.919Z,100122.31
2023-12-07T15:45:22.217Z,100114.59
2023-12-07T15:50:26.203Z,100125.09
2023-12-07T15:55:32.602Z,100121.94
2023-12-07T16:00:36.724Z,100133.41
2023-12-07T16:05:43.123Z,100127.97
2023-12-07T16:10:46.234Z,100127.97
2023-12-07T16:15:51.363Z,100131.00
2023-12-07T16:20:55.384Z,100129.22
2023-12-07T16:25:58.457Z,100121.22
2023-12-07T16:31:02.160Z,100121.53
2023-12-07T16:36:13.004Z,100122.34
2023-12-07T16:41:26.696Z,100124.66
2023-12-07T16:46:29.973Z,100119.50
2023-12-07T16:51:37.322Z,100126.91
2023-12-07T16:56:45.557Z,100130.25
2023-12-07T17:01:54.149Z,100131.53
2023-12-07T17:07:00.825Z,100141.44
2023-12-07T17:12:05.368Z,100139.06
2023-12-07T17:17:11.595Z,100139.38
2023-12-07T17:22:17.362Z,100149.34
2023-12-07T17:27:22.099Z,100146.59
2023-12-07T17:32:25.859Z,100155.13
2023-12-07T17:38:19.636Z,100157.81
2023-12-07T17:43:23.258Z,100153.47
2023-12-07T17:48:27.054Z,100144.59
2023-12-07T17:53:30.434Z,100143.75
2023-12-07T17:58:33.405Z,100150.00
2023-12-07T18:03:37.236Z,100138.75
2023-12-07T18:08:40.217Z,100138.94
2023-12-07T18:13:43.213Z,100137.78
2023-12-07T18:18:46.705Z,100149.88
2023-12-07T18:23:49.904Z,100145.47
2023-12-07T18:28:53.103Z,100148.72
2023-12-07T18:33:56.666Z,100149.47
2023-12-07T18:39:00.416Z,100147.28
2023-12-07T18:44:05.067Z,100150.25
2023-12-07T18:49:09.841Z,100148.72
2023-12-07T18:54:14.970Z,100153.66
2023-12-07T18:59:18.574Z,100154.13
2023-12-07T19:04:22.324Z,100152.72
2023-12-07T19:09:25.926Z,100149.59
2023-12-07T19:14:29.228Z,100156.38
2023-12-07T19:19:33.933Z,100150.88
2023-12-07T19:24:37.034Z,100152.84
2023-12-07T19:29:41.700Z,100165.47
2023-12-07T19:34:44.736Z,100169.00
2023-12-07T19:39:47.828Z,100179.53
2023-12-07T19:44:51.844Z,100182.72
2023-12-07T19:49:55.064Z,100189.59
2023-12-07T19:54:59.275Z,100184.16
2023-12-07T20:00:02.890Z,100199.03
2023-12-07T20:05:09.279Z,100187.59
2023-12-07T20:10:12.320Z,100173.31
2023-12-07T20:15:15.738Z,100175.94
2023-12-07T20:20:19.419Z,100175.28
2023-12-07T20:25:24.116Z,100169.91
2023-12-07T20:30:30.184Z,100161.31
2023-12-07T20:35:34.516Z,100150.28
2023-12-07T20:40:38.928Z,100145.38
2023-12-07T20:45:42.674Z,100140.28
2023-12-07T20:50:47.002Z,100121.25
2023-12-07T20:55:50.635Z,100118.88
2023-12-07T21:00:54.763Z,100118.19
2023-12-07T21:05:59.499Z,100110.94
2023-12-07T21:11:05.137Z,100087.13
2023-12-07T21:16:09.827Z,100094.84
2023-12-07T21:21:13.572Z,100094.69
2023-12-07T21:26:16.835Z,100085.97
2023-12-07T21:31:23.789Z,100086.28
2023-12-07T21:36:26.670Z,100075.78
2023-12-07T21:41:29.630Z,100081.88
2023-12-07T21:46:32.595Z,100078.84
2023-12-07T21:51:35.442Z,100067.38
2023-12-07T21:56:38.676Z,100070.81
2023-12-07T22:01:41.700Z,100078.31
2023-12-07T22:06:44.859Z,100078.53
2023-12-07T22:11:47.704Z,100079.69
2023-12-07T22:16:50.732Z,100068.91
2023-12-07T22:21:53.519Z,100066.22
2023-12-07T22:26:56.507Z,100063.28
2023-12-07T22:32:00.108Z,100056.81
2023-12-07T22:37:03.198Z,100048.41
2023-12-07T22:42:06.608Z,100044.66
2023-12-07T22:47:09.615Z,100045.75
2023-12-07T22:52:12.529Z,100060.56
2023-12-07T22:57:15.418Z,100049.97
2023-12-07T23:02:18.572Z,100048.84
2023-12-07T23:07:22.951Z,100048.41
2023-12-07T23:12:25.792Z,100051.50
2023-12-07T23:17:29.166Z,100055.31
2023-12-07T23:22:32.063Z,100038.97
2023-12-07T23:27:35.028Z,100050.06
2023-12-07T23:32:37.938Z,100054.44
2023-12-07T23:37:40.875Z,100041.63
2023-12-07T23:42:43.818Z,100043.13
2023-12-07T23:47:47.001Z,100036.94
2023-12-07T23:52:50.121Z,100039.38
2023-12-07T23:57:53.593Z,100041.72
